createdAt,value
2022-09-13T00:00:57.375Z,5.73
2022-09-13T00:01:58.961Z,5.67
2022-09-13T00:03:00.791Z,5.27
2022-09-13T00:04:02.738Z,5.70
2022-09-13T00:05:04.508Z,5.70
2022-09-13T00:06:10.648Z,5.60
2022-09-13T00:07:12.206Z,5.90
2022-09-13T00:08:14.592Z,5.43
2022-09-13T00:09:16.103Z,5.87
2022-09-13T00:10:17.775Z,5.53
2022-09-13T00:11:22.633Z,5.83
2022-09-13T00:12:24.266Z,5.57
2022-09-13T00:13:25.824Z,5.97
2022-09-13T00:14:27.388Z,5.60
2022-09-13T00:15:29.371Z,5.23
2022-09-13T00:16:31.004Z,5.90
2022-09-13T00:17:32.657Z,6.27
2022-09-13T00:18:34.161Z,6.00
2022-09-13T00:19:35.776Z,5.90
2022-09-13T00:20:37.572Z,6.10
2022-09-13T00:21:39.194Z,5.80
2022-09-13T00:22:40.777Z,6.10
2022-09-13T00:23:51.287Z,5.87
2022-09-13T00:24:53.068Z,6.47
2022-09-13T00:26:13.580Z,5.60
2022-09-13T00:27:15.151Z,6.07
2022-09-13T00:28:16.664Z,6.33
2022-09-13T00:29:18.269Z,5.40
2022-09-13T00:30:19.895Z,6.43
2022-09-13T00:31:24.180Z,6.00
2022-09-13T00:32:25.886Z,6.50
2022-09-13T00:33:27.588Z,6.20
2022-09-13T00:34:29.211Z,5.70
2022-09-13T00:35:31.860Z,6.40
2022-09-13T00:36:33.371Z,6.77
2022-09-13T00:37:34.929Z,6.30
2022-09-13T00:38:40.159Z,5.97
2022-09-13T00:39:41.768Z,6.17
2022-09-13T00:40:43.441Z,6.57
2022-09-13T00:41:45.050Z,5.67
2022-09-13T00:42:46.560Z,6.10
2022-09-13T00:43:56.611Z,5.70
2022-09-13T00:45:07.204Z,5.57
2022-09-13T00:46:09.840Z,5.37
2022-09-13T00:47:14.624Z,5.77
2022-09-13T00:48:22.857Z,5.30
2022-09-13T00:49:35.456Z,5.30
2022-09-13T00:50:56.151Z,5.33
2022-09-13T00:52:01.873Z,5.20
2022-09-13T00:53:14.441Z,5.80
2022-09-13T00:54:19.657Z,6.00
2022-09-13T00:55:29.304Z,5.57
2022-09-13T00:56:37.046Z,5.13
2022-09-13T00:57:40.944Z,6.00
2022-09-13T00:58:49.121Z,5.97
2022-09-13T01:00:14.149Z,5.33
2022-09-13T01:01:17.284Z,5.33
2022-09-13T01:02:19.298Z,4.97
2022-09-13T01:03:24.687Z,5.40
2022-09-13T01:04:29.047Z,5.13
2022-09-13T01:05:38.853Z,5.20
2022-09-13T01:06:42.859Z,5.83
2022-09-13T01:07:44.588Z,5.07
2022-09-13T01:08:51.233Z,5.83
2022-09-13T01:09:53.472Z,5.90
2022-09-13T01:10:58.258Z,5.63
2022-09-13T01:12:08.385Z,5.40
2022-09-13T01:13:17.213Z,5.23
2022-09-13T01:14:20.553Z,5.13
2022-09-13T01:15:22.671Z,5.33
2022-09-13T01:16:24.586Z,4.90
2022-09-13T01:17:31.560Z,5.50
2022-09-13T01:18:33.116Z,5.13
2022-09-13T01:19:35.529Z,5.60
2022-09-13T01:20:55.485Z,5.50
2022-09-13T01:22:24.988Z,5.40
2022-09-13T01:23:32.618Z,5.43
2022-09-13T01:24:37.011Z,5.87
2022-09-13T01:26:04.687Z,6.07
2022-09-13T01:27:34.144Z,5.67
2022-09-13T01:28:55.655Z,5.70
2022-09-13T01:30:06.116Z,5.23
2022-09-13T01:31:19.450Z,5.67
2022-09-13T01:32:45.104Z,5.87
2022-09-13T01:33:57.933Z,5.23
2022-09-13T01:35:23.880Z,5.73
2022-09-13T01:36:46.725Z,5.40
2022-09-13T01:37:57.280Z,5.33
2022-09-13T01:39:06.116Z,5.53
2022-09-13T01:40:22.877Z,5.77
2022-09-13T01:41:24.922Z,5.83
2022-09-13T01:42:36.899Z,5.80
2022-09-13T01:44:05.611Z,5.37
2022-09-13T01:45:23.435Z,5.13
2022-09-13T01:46:27.740Z,5.43
2022-09-13T01:48:06.630Z,5.27
2022-09-13T01:49:36.457Z,5.83
2022-09-13T01:50:50.841Z,4.80
2022-09-13T01:52:10.304Z,5.33
2022-09-13T01:53:40.646Z,5.47
2022-09-13T01:55:01.570Z,5.50
2022-09-13T01:56:16.315Z,5.30
2022-09-13T01:57:46.146Z,5.50
2022-09-13T01:58:57.031Z,5.23
2022-09-13T02:00:08.428Z,5.50
2022-09-13T02:01:21.715Z,5.47
2022-09-13T02:02:36.805Z,5.30
2022-09-13T02:03:42.565Z,5.50
2022-09-13T02:04:51.212Z,5.63
2022-09-13T02:05:59.536Z,4.93
2022-09-13T02:07:08.960Z,4.90
2022-09-13T02:08:17.334Z,5.10
2022-09-13T02:09:23.832Z,5.50
2022-09-13T02:10:37.932Z,5.47
2022-09-13T02:11:42.636Z,5.50
2022-09-13T02:12:48.190Z,5.20
2022-09-13T02:13:52.134Z,5.37
2022-09-13T02:15:12.316Z,4.80
2022-09-13T02:16:29.065Z,5.40
2022-09-13T02:17:37.492Z,4.87
2022-09-13T02:18:41.532Z,4.97
2022-09-13T02:19:55.152Z,4.70
2022-09-13T02:21:05.930Z,4.80
2022-09-13T02:22:11.521Z,5.00
2022-09-13T02:23:24.533Z,4.47
2022-09-13T02:24:36.082Z,5.00
2022-09-13T02:25:39.865Z,5.07
2022-09-13T02:26:46.595Z,5.03
2022-09-13T02:27:52.561Z,5.00
2022-09-13T02:28:58.049Z,5.23
2022-09-13T02:30:06.787Z,5.30
2022-09-13T02:31:09.516Z,5.60
2022-09-13T02:32:16.439Z,5.43
2022-09-13T02:33:25.701Z,5.60
2022-09-13T02:34:51.700Z,5.27
2022-09-13T02:36:09.690Z,5.47
2022-09-13T02:37:13.111Z,5.03
2022-09-13T02:38:23.943Z,5.47
2022-09-13T02:39:28.303Z,5.70
2022-09-13T02:40:40.089Z,5.60
2022-09-13T02:42:36.588Z,5.13
2022-09-13T02:43:44.304Z,5.17
2022-09-13T02:44:57.166Z,5.33
2022-09-13T02:46:26.432Z,5.17
2022-09-13T02:47:46.233Z,5.40
2022-09-13T02:49:45.939Z,5.87
2022-09-13T02:51:04.253Z,5.77
2022-09-13T02:52:32.819Z,6.40
2022-09-13T02:54:06.519Z,5.80
2022-09-13T02:55:38.215Z,6.20
2022-09-13T02:57:19.510Z,6.20
2022-09-13T02:58:35.435Z,6.37
2022-09-13T02:59:37.110Z,5.90
2022-09-13T03:00:39.170Z,6.40
2022-09-13T03:01:45.267Z,6.33
2022-09-13T03:02:50.190Z,6.57
2022-09-13T03:03:54.318Z,6.20
2022-09-13T03:04:56.350Z,6.40
2022-09-13T03:05:57.948Z,6.67
2022-09-13T03:07:00.104Z,6.47
2022-09-13T03:08:02.937Z,6.43
2022-09-13T03:09:06.814Z,6.30
2022-09-13T03:10:13.776Z,5.90
2022-09-13T03:11:40.599Z,5.03
2022-09-13T03:13:16.932Z,5.50
2022-09-13T03:14:32.480Z,5.60
2022-09-13T03:15:59.661Z,5.83
2022-09-13T03:17:10.399Z,5.67
2022-09-13T03:18:38.367Z,6.17
2022-09-13T03:19:56.969Z,6.00
2022-09-13T03:21:19.791Z,5.93
2022-09-13T03:22:23.932Z,6.20
2022-09-13T03:23:38.529Z,5.97
2022-09-13T03:25:05.552Z,5.60
2022-09-13T03:26:26.532Z,5.80
2022-09-13T03:27:35.607Z,5.03
2022-09-13T03:29:19.847Z,5.70
2022-09-13T03:30:21.470Z,5.23
2022-09-13T03:31:36.640Z,5.90
2022-09-13T03:32:53.455Z,5.10
2022-09-13T03:34:01.535Z,5.47
2022-09-13T03:35:24.017Z,5.00
2022-09-13T03:36:38.465Z,4.83
2022-09-13T03:38:03.072Z,5.63
2022-09-13T03:39:29.630Z,5.50
2022-09-13T03:40:34.061Z,6.07
2022-09-13T03:41:42.628Z,6.07
2022-09-13T03:42:58.001Z,5.97
2022-09-13T03:44:04.763Z,6.13
2022-09-13T03:45:09.941Z,5.87
2022-09-13T03:46:18.832Z,5.57
2022-09-13T03:47:22.907Z,5.50
2022-09-13T03:48:25.623Z,5.50
2022-09-13T03:49:29.151Z,5.90
2022-09-13T03:50:31.799Z,5.93
2022-09-13T03:51:34.052Z,5.50
2022-09-13T03:52:36.236Z,5.73
2022-09-13T03:53:42.962Z,5.57
2022-09-13T03:54:44.472Z,5.57
2022-09-13T03:55:46.215Z,5.90
2022-09-13T03:57:17.503Z,5.30
2022-09-13T03:58:22.216Z,5.70
2022-09-13T03:59:23.799Z,5.77
2022-09-13T04:00:25.444Z,6.13
2022-09-13T04:01:27.507Z,6.00
2022-09-13T04:02:29.204Z,6.43
2022-09-13T04:03:30.795Z,6.07
2022-09-13T04:04:33.144Z,6.53
2022-09-13T04:05:35.043Z,6.13
2022-09-13T04:06:37.167Z,6.00
2022-09-13T04:07:38.846Z,7.00
2022-09-13T04:08:40.759Z,6.60
2022-09-13T04:09:42.644Z,6.47
2022-09-13T04:10:44.167Z,6.87
2022-09-13T04:11:45.683Z,6.70
2022-09-13T04:12:47.209Z,6.50
2022-09-13T04:13:49.975Z,6.30
2022-09-13T04:14:52.524Z,6.03
2022-09-13T04:15:55.031Z,6.57
2022-09-13T04:16:58.473Z,6.70
2022-09-13T04:18:01.097Z,5.83
2022-09-13T04:19:02.966Z,6.60
2022-09-13T04:20:08.848Z,5.90
2022-09-13T04:21:11.426Z,6.37
2022-09-13T04:22:22.716Z,6.40
2022-09-13T04:23:25.588Z,6.00
2022-09-13T04:24:28.961Z,5.80
2022-09-13T04:25:30.707Z,6.20
2022-09-13T04:26:32.320Z,6.17
2022-09-13T04:27:35.671Z,6.63
2022-09-13T04:28:37.314Z,6.67
2022-09-13T04:29:38.853Z,5.93
2022-09-13T04:30:44.716Z,6.03
2022-09-13T04:31:46.580Z,6.10
2022-09-13T04:32:48.149Z,6.57
2022-09-13T04:33:50.083Z,5.83
2022-09-13T04:34:51.624Z,6.37
2022-09-13T04:35:59.843Z,6.03
2022-09-13T04:37:01.462Z,5.27
2022-09-13T04:38:03.769Z,5.40
2022-09-13T04:39:05.384Z,6.10
2022-09-13T04:40:08.270Z,6.33
2022-09-13T04:41:10.875Z,6.13
2022-09-13T04:42:12.519Z,6.10
2022-09-13T04:43:14.047Z,5.60
2022-09-13T04:44:17.935Z,6.60
2022-09-13T04:45:19.463Z,6.10
2022-09-13T04:46:21.076Z,6.10
2022-09-13T04:47:23.140Z,5.93
2022-09-13T04:48:24.683Z,6.27
2022-09-13T04:49:26.295Z,6.70
2022-09-13T04:50:27.952Z,6.17
2022-09-13T04:51:29.503Z,6.60
2022-09-13T04:52:31.164Z,6.40
2022-09-13T04:53:32.748Z,5.83
2022-09-13T04:54:34.292Z,6.23
2022-09-13T04:55:36.846Z,5.77
2022-09-13T04:56:38.546Z,5.53
2022-09-13T04:57:40.900Z,6.27
2022-09-13T04:58:42.464Z,6.07
2022-09-13T04:59:44.019Z,5.77
2022-09-13T05:00:45.749Z,6.07
2022-09-13T05:01:47.413Z,5.33
2022-09-13T05:02:48.965Z,4.97
2022-09-13T05:03:55.399Z,5.03
2022-09-13T05:04:56.965Z,5.20
2022-09-13T05:06:19.644Z,5.07
2022-09-13T05:07:21.170Z,5.70
2022-09-13T05:08:22.677Z,5.37
2022-09-13T05:09:24.860Z,5.90
2022-09-13T05:10:26.436Z,5.30
2022-09-13T05:11:29.049Z,5.20
2022-09-13T05:12:31.127Z,5.30
2022-09-13T05:13:33.628Z,5.30
2022-09-13T05:14:35.196Z,5.63
2022-09-13T05:15:36.749Z,5.13
2022-09-13T05:16:38.491Z,5.17
2022-09-13T05:17:40.233Z,5.00
2022-09-13T05:18:45.123Z,5.13
2022-09-13T05:19:46.884Z,5.90
2022-09-13T05:20:48.393Z,6.03
2022-09-13T05:21:49.905Z,6.50
2022-09-13T05:22:51.457Z,6.10
2022-09-13T05:23:54.177Z,6.47
2022-09-13T05:24:56.639Z,5.63
2022-09-13T05:26:04.209Z,6.25
2022-09-13T05:27:05.772Z,6.10
2022-09-13T05:28:07.288Z,6.25
2022-09-13T05:29:08.827Z,6.35
2022-09-13T05:30:10.907Z,6.50
2022-09-13T05:31:25.030Z,7.07
2022-09-13T05:32:26.680Z,6.95
2022-09-13T05:33:30.984Z,7.43
2022-09-13T05:34:32.578Z,7.70
2022-09-13T05:35:34.103Z,7.95
2022-09-13T05:36:35.647Z,7.32
2022-09-13T05:37:37.151Z,8.23
2022-09-13T05:38:38.812Z,7.25
2022-09-13T05:40:00.677Z,7.43
2022-09-13T05:41:04.203Z,7.90
2022-09-13T05:42:05.964Z,7.32
2022-09-13T05:43:07.495Z,8.40
2022-09-13T05:44:13.325Z,7.93
2022-09-13T05:45:15.574Z,7.10
2022-09-13T05:46:19.809Z,6.87
2022-09-13T05:47:21.408Z,6.57
2022-09-13T05:48:22.907Z,6.55
2022-09-13T05:49:24.433Z,6.03
2022-09-13T05:50:54.244Z,6.28
2022-09-13T05:51:47.726Z,5.93
2022-09-13T05:52:56.397Z,5.53
2022-09-13T05:53:58.557Z,5.63
2022-09-13T05:55:00.185Z,5.57
2022-09-13T05:56:02.159Z,4.88
2022-09-13T05:57:05.206Z,5.32
2022-09-13T05:58:06.748Z,4.28
2022-09-13T05:59:12.716Z,4.50
2022-09-13T06:00:15.531Z,4.57
2022-09-13T06:01:19.430Z,4.50
2022-09-13T06:02:21.200Z,4.38
2022-09-13T06:03:23.882Z,3.85
2022-09-13T06:04:25.403Z,4.20
2022-09-13T06:05:31.639Z,4.60
2022-09-13T06:06:35.303Z,4.07
2022-09-13T06:07:39.815Z,4.53
2022-09-13T06:08:41.526Z,4.35
2022-09-13T06:09:43.049Z,4.03
2022-09-13T06:10:58.423Z,4.03
2022-09-13T06:12:00.021Z,4.13
2022-09-13T06:13:01.549Z,3.53
2022-09-13T06:14:03.391Z,3.92
2022-09-13T06:15:05.240Z,4.88
2022-09-13T06:16:09.777Z,3.75
2022-09-13T06:17:11.392Z,4.18
2022-09-13T06:18:12.911Z,4.00
2022-09-13T06:19:14.930Z,4.22
2022-09-13T06:20:16.491Z,3.15
2022-09-13T06:21:28.222Z,3.83
2022-09-13T06:22:33.322Z,3.47
2022-09-13T06:23:35.575Z,3.90
2022-09-13T06:24:37.772Z,3.92
2022-09-13T06:25:39.376Z,3.88
2022-09-13T06:26:40.878Z,3.63
2022-09-13T06:27:42.663Z,4.05
2022-09-13T06:28:49.092Z,3.70
2022-09-13T06:29:50.819Z,3.72
2022-09-13T06:30:52.353Z,3.70
2022-09-13T06:31:54.412Z,3.83
2022-09-13T06:32:57.219Z,3.60
2022-09-13T06:34:02.487Z,3.55
2022-09-13T06:35:04.341Z,3.58
2022-09-13T06:36:09.149Z,3.25
2022-09-13T06:37:10.651Z,3.45
2022-09-13T06:38:12.666Z,3.78
2022-09-13T06:39:14.296Z,3.90
2022-09-13T06:40:18.211Z,3.50
2022-09-13T06:41:23.545Z,3.70
2022-09-13T06:42:25.108Z,4.15
2022-09-13T06:43:26.880Z,3.30
2022-09-13T06:44:28.625Z,3.83
2022-09-13T06:45:30.246Z,4.03
2022-09-13T06:46:34.269Z,3.80
2022-09-13T06:47:35.961Z,3.97
2022-09-13T06:48:40.477Z,3.80
2022-09-13T06:49:42.616Z,4.00
2022-09-13T06:50:45.657Z,3.70
2022-09-13T06:51:47.365Z,3.63
2022-09-13T06:52:49.109Z,4.20
2022-09-13T06:53:52.121Z,3.95
2022-09-13T06:54:54.604Z,4.03
2022-09-13T06:56:13.305Z,4.07
2022-09-13T06:57:14.832Z,4.13
2022-09-13T06:58:16.322Z,4.25
2022-09-13T06:59:17.821Z,3.90
2022-09-13T07:00:19.404Z,4.00
2022-09-13T07:01:24.272Z,3.88
2022-09-13T07:02:27.103Z,4.00
2022-09-13T07:03:28.693Z,4.25
2022-09-13T07:04:31.654Z,5.03
2022-09-13T07:05:33.241Z,4.90
2022-09-13T07:06:37.593Z,5.07
2022-09-13T07:07:39.174Z,4.97
2022-09-13T07:08:42.163Z,4.50
2022-09-13T07:09:43.739Z,6.43
2022-09-13T07:10:45.334Z,7.05
2022-09-13T07:11:48.590Z,6.65
2022-09-13T07:12:50.617Z,6.50
2022-09-13T07:13:54.482Z,5.78
2022-09-13T07:14:56.118Z,6.55
2022-09-13T07:15:57.704Z,6.95
2022-09-13T07:17:00.428Z,7.00
2022-09-13T07:18:02.025Z,6.22
2022-09-13T07:19:12.617Z,5.93
2022-09-13T07:20:14.217Z,6.63
2022-09-13T07:21:16.263Z,6.78
2022-09-13T07:22:17.787Z,4.15
2022-09-13T07:23:19.308Z,5.22
2022-09-13T07:24:22.223Z,4.72
2022-09-13T07:25:23.760Z,4.80
2022-09-13T07:26:29.504Z,3.63
2022-09-13T07:27:31.126Z,3.25
2022-09-13T07:28:42.212Z,3.45
2022-09-13T07:29:43.785Z,3.15
2022-09-13T07:30:45.393Z,3.03
2022-09-13T07:31:49.168Z,3.03
2022-09-13T07:32:50.711Z,3.17
2022-09-13T07:34:00.532Z,2.60
2022-09-13T07:35:02.541Z,2.58
2022-09-13T07:36:06.694Z,2.50
2022-09-13T07:37:08.389Z,2.63
2022-09-13T07:38:09.988Z,2.70
2022-09-13T07:39:15.633Z,2.60
2022-09-13T07:40:18.931Z,2.42
2022-09-13T07:41:23.270Z,2.67
2022-09-13T07:42:25.093Z,2.33
2022-09-13T07:43:27.403Z,2.60
2022-09-13T07:44:28.897Z,2.50
2022-09-13T07:45:30.423Z,2.75
2022-09-13T07:46:33.515Z,2.78
2022-09-13T07:47:36.138Z,2.60
2022-09-13T07:48:39.964Z,2.65
2022-09-13T07:49:41.693Z,2.80
2022-09-13T07:50:45.953Z,2.35
2022-09-13T07:51:51.163Z,2.20
2022-09-13T07:52:53.495Z,2.20
2022-09-13T07:53:58.233Z,2.28
2022-09-13T07:54:59.763Z,2.28
2022-09-13T07:56:02.386Z,2.40
2022-09-13T07:57:04.097Z,2.80
2022-09-13T07:58:05.604Z,2.67
2022-09-13T07:59:12.580Z,2.20
2022-09-13T08:00:14.616Z,2.10
2022-09-13T08:01:24.486Z,2.47
2022-09-13T08:02:26.092Z,2.22
2022-09-13T08:03:27.674Z,2.08
2022-09-13T08:04:32.355Z,2.40
2022-09-13T08:05:39.825Z,2.03
2022-09-13T08:06:43.349Z,1.98
2022-09-13T08:07:44.862Z,2.53
2022-09-13T08:08:46.494Z,1.85
2022-09-13T08:09:48.113Z,1.80
2022-09-13T08:10:49.903Z,2.03
2022-09-13T08:11:53.154Z,2.10
2022-09-13T08:12:54.887Z,2.20
2022-09-13T08:13:56.734Z,2.22
2022-09-13T08:14:58.252Z,2.25
2022-09-13T08:16:06.595Z,2.08
2022-09-13T08:17:08.193Z,1.70
2022-09-13T08:18:10.137Z,1.98
2022-09-13T08:19:16.914Z,2.10
2022-09-13T08:20:18.725Z,2.38
2022-09-13T08:21:21.638Z,2.00
2022-09-13T08:22:23.165Z,1.88
2022-09-13T08:23:25.303Z,2.03
2022-09-13T08:24:26.981Z,1.90
2022-09-13T08:25:28.525Z,1.90
2022-09-13T08:26:31.653Z,2.35
2022-09-13T08:27:33.236Z,2.25
2022-09-13T08:28:42.412Z,2.22
2022-09-13T08:29:44.181Z,1.85
2022-09-13T08:30:45.827Z,2.13
2022-09-13T08:31:47.486Z,2.15
2022-09-13T08:32:50.704Z,1.92
2022-09-13T08:33:53.490Z,2.05
2022-09-13T08:34:55.086Z,2.15
2022-09-13T08:35:58.219Z,2.05
2022-09-13T08:36:59.886Z,1.92
2022-09-13T08:38:02.254Z,2.30
2022-09-13T08:39:04.486Z,1.77
2022-09-13T08:40:06.551Z,2.10
2022-09-13T08:41:39.704Z,2.20
2022-09-13T08:42:53.476Z,2.15
2022-09-13T08:44:13.591Z,1.98
2022-09-13T08:45:15.403Z,2.03
2022-09-13T08:46:16.941Z,1.92
2022-09-13T08:47:24.554Z,1.70
2022-09-13T08:48:35.091Z,1.90
2022-09-13T08:49:48.628Z,1.90
2022-09-13T08:50:54.067Z,2.05
2022-09-13T08:52:03.004Z,1.90
2022-09-13T08:53:28.164Z,1.70
2022-09-13T08:54:29.778Z,2.30
2022-09-13T08:56:09.486Z,1.90
2022-09-13T08:57:22.652Z,1.60
2022-09-13T08:58:36.354Z,2.08
2022-09-13T08:59:59.722Z,1.80
2022-09-13T09:01:27.009Z,1.73
2022-09-13T09:02:40.483Z,1.55
2022-09-13T09:04:08.397Z,1.73
2022-09-13T09:05:35.774Z,1.60
2022-09-13T09:06:37.460Z,1.83
2022-09-13T09:08:02.379Z,1.98
2022-09-13T09:09:19.427Z,1.80
2022-09-13T09:10:23.228Z,1.88
2022-09-13T09:11:43.703Z,1.70
2022-09-13T09:13:04.089Z,1.58
2022-09-13T09:14:17.290Z,1.92
2022-09-13T09:15:29.536Z,1.80
2022-09-13T09:16:43.002Z,1.73
2022-09-13T09:18:00.365Z,1.83
2022-09-13T09:19:27.129Z,1.77
2022-09-13T09:20:34.025Z,1.63
2022-09-13T09:21:36.729Z,2.00
2022-09-13T09:22:38.253Z,1.98
2022-09-13T09:23:54.109Z,2.10
2022-09-13T09:24:57.129Z,1.90
2022-09-13T09:26:22.536Z,1.70
2022-09-13T09:27:24.211Z,1.90
2022-09-13T09:28:27.076Z,1.63
2022-09-13T09:29:33.448Z,1.95
2022-09-13T09:31:01.228Z,1.85
2022-09-13T09:32:13.119Z,2.28
2022-09-13T09:33:25.532Z,1.90
2022-09-13T09:34:48.914Z,2.00
2022-09-13T09:36:28.988Z,2.35
2022-09-13T09:37:31.526Z,2.20
2022-09-13T09:38:42.807Z,1.90
2022-09-13T09:39:44.774Z,2.05
2022-09-13T09:40:46.694Z,2.13
2022-09-13T09:41:48.267Z,2.00
2022-09-13T09:42:49.919Z,2.00
2022-09-13T09:44:01.393Z,1.90
2022-09-13T09:45:06.401Z,2.38
2022-09-13T09:46:10.878Z,1.90
2022-09-13T09:47:19.083Z,2.00
2022-09-13T09:48:31.011Z,1.85
2022-09-13T09:49:58.009Z,1.65
2022-09-13T09:51:00.233Z,1.67
2022-09-13T09:52:06.884Z,1.70
2022-09-13T09:53:17.109Z,1.92
2022-09-13T09:54:19.203Z,1.75
2022-09-13T09:55:23.641Z,1.80
2022-09-13T09:56:30.231Z,1.80
2022-09-13T09:57:51.686Z,1.67
2022-09-13T09:58:55.936Z,1.70
2022-09-13T10:00:11.958Z,1.52
2022-09-13T10:01:24.825Z,1.60
2022-09-13T10:02:26.602Z,1.75
2022-09-13T10:03:30.315Z,1.80
2022-09-13T10:04:32.180Z,1.65
2022-09-13T10:05:35.240Z,1.42
2022-09-13T10:06:42.007Z,1.67
2022-09-13T10:07:44.490Z,1.40
2022-09-13T10:08:57.658Z,1.60
2022-09-13T10:10:04.519Z,1.70
2022-09-13T10:11:07.026Z,1.70
2022-09-13T10:12:08.695Z,1.95
2022-09-13T10:13:17.475Z,1.65
2022-09-13T10:14:34.772Z,1.90
2022-09-13T10:15:36.459Z,1.80
2022-09-13T10:16:38.038Z,1.52
2022-09-13T10:17:39.660Z,1.55
2022-09-13T10:18:44.492Z,1.77
2022-09-13T10:20:01.431Z,1.90
2022-09-13T10:21:04.987Z,1.95
2022-09-13T10:22:11.753Z,1.70
2022-09-13T10:23:19.793Z,1.90
2022-09-13T10:24:21.624Z,1.92
2022-09-13T10:25:27.269Z,1.95
2022-09-13T10:26:33.725Z,1.65
2022-09-13T10:27:42.789Z,1.85
2022-09-13T10:28:48.321Z,2.08
2022-09-13T10:29:55.399Z,1.65
2022-09-13T10:31:05.974Z,1.52
2022-09-13T10:32:09.459Z,1.67
2022-09-13T10:33:25.914Z,1.70
2022-09-13T10:34:31.031Z,1.65
2022-09-13T10:35:33.589Z,1.50
2022-09-13T10:36:56.646Z,1.60
2022-09-13T10:37:58.224Z,1.45
2022-09-13T10:39:05.245Z,1.45
2022-09-13T10:40:38.532Z,1.60
2022-09-13T10:41:42.819Z,1.48
2022-09-13T10:42:56.771Z,1.40
2022-09-13T10:44:09.050Z,1.60
2022-09-13T10:45:24.048Z,1.30
2022-09-13T10:46:28.991Z,1.60
2022-09-13T10:47:38.011Z,1.40
2022-09-13T10:48:48.422Z,1.35
2022-09-13T10:49:59.320Z,1.30
2022-09-13T10:51:02.652Z,1.80
2022-09-13T10:52:25.648Z,1.10
2022-09-13T10:53:41.307Z,1.15
2022-09-13T10:54:42.804Z,1.08
2022-09-13T10:55:53.838Z,1.30
2022-09-13T10:56:55.741Z,1.30
2022-09-13T10:58:03.274Z,1.05
2022-09-13T10:59:29.869Z,1.17
2022-09-13T11:01:08.655Z,1.20
2022-09-13T11:03:15.008Z,1.38
2022-09-13T11:04:43.092Z,1.50
2022-09-13T11:06:04.935Z,1.60
2022-09-13T11:07:13.983Z,1.40
2022-09-13T11:08:26.867Z,1.52
2022-09-13T11:09:53.839Z,1.33
2022-09-13T11:11:13.627Z,1.30
2022-09-13T11:12:33.415Z,1.25
2022-09-13T11:13:50.284Z,1.73
2022-09-13T11:15:19.399Z,1.30
2022-09-13T11:16:46.081Z,1.48
2022-09-13T11:18:09.415Z,1.83
2022-09-13T11:19:31.659Z,1.42
2022-09-13T11:21:00.220Z,1.33
2022-09-13T11:22:19.930Z,1.30
2022-09-13T11:23:43.728Z,1.50
2022-09-13T11:25:03.282Z,1.63
2022-09-13T11:26:13.663Z,1.63
2022-09-13T11:27:19.013Z,1.20
2022-09-13T11:28:49.947Z,1.15
2022-09-13T11:30:29.185Z,1.77
2022-09-13T11:31:42.668Z,1.70
2022-09-13T11:32:53.436Z,1.60
2022-09-13T11:34:29.759Z,1.75
2022-09-13T11:36:11.650Z,1.52
2022-09-13T11:37:25.803Z,1.58
2022-09-13T11:39:13.545Z,1.40
2022-09-13T11:40:24.207Z,1.65
2022-09-13T11:41:28.470Z,1.35
2022-09-13T11:42:45.894Z,1.20
2022-09-13T11:44:01.938Z,1.40
2022-09-13T11:45:22.045Z,1.40
2022-09-13T11:46:35.572Z,1.88
2022-09-13T11:47:56.720Z,1.25
2022-09-13T11:49:07.262Z,1.60
2022-09-13T11:50:39.839Z,1.50
2022-09-13T11:52:01.786Z,1.30
2022-09-13T11:53:35.971Z,1.30
2022-09-13T11:55:14.066Z,1.42
2022-09-13T11:56:22.896Z,1.13
2022-09-13T11:57:31.223Z,1.45
2022-09-13T11:58:44.441Z,1.42
2022-09-13T11:59:59.523Z,1.42
2022-09-13T12:01:05.781Z,1.13
2022-09-13T12:02:20.372Z,1.25
2022-09-13T12:03:31.686Z,1.50
2022-09-13T12:05:17.979Z,1.30
2022-09-13T12:06:22.209Z,1.42
2022-09-13T12:07:34.515Z,1.50
2022-09-13T12:08:40.666Z,1.60
2022-09-13T12:09:56.648Z,1.65
2022-09-13T12:11:03.814Z,1.50
2022-09-13T12:12:10.297Z,1.50
2022-09-13T12:13:19.735Z,1.48
2022-09-13T12:14:26.134Z,1.45
2022-09-13T12:15:39.956Z,1.77
2022-09-13T12:16:45.989Z,1.63
2022-09-13T12:17:53.103Z,1.70
2022-09-13T12:18:59.784Z,1.52
2022-09-13T12:20:03.631Z,1.80
2022-09-13T12:21:10.496Z,1.90
2022-09-13T12:22:13.809Z,2.05
2022-09-13T12:23:20.281Z,1.50
2022-09-13T12:24:33.777Z,1.80
2022-09-13T12:25:46.647Z,1.50
2022-09-13T12:27:00.303Z,1.10
2022-09-13T12:28:17.935Z,1.52
2022-09-13T12:29:19.395Z,1.50
2022-09-13T12:30:37.681Z,1.40
2022-09-13T12:31:40.752Z,1.25
2022-09-13T12:32:47.905Z,1.50
2022-09-13T12:33:49.995Z,1.30
2022-09-13T12:35:06.025Z,1.38
2022-09-13T12:36:31.589Z,1.20
2022-09-13T12:37:54.992Z,1.30
2022-09-13T12:39:40.210Z,1.17
2022-09-13T12:41:03.164Z,1.20
2022-09-13T12:42:37.785Z,1.80
2022-09-13T12:43:53.973Z,1.45
2022-09-13T12:45:16.677Z,1.13
2022-09-13T12:46:42.660Z,1.60
2022-09-13T12:47:47.163Z,1.52
2022-09-13T12:49:18.087Z,1.13
2022-09-13T12:50:57.079Z,1.70
2022-09-13T12:52:10.527Z,1.60
2022-09-13T12:53:20.976Z,1.58
2022-09-13T12:54:55.359Z,1.65
2022-09-13T12:55:56.805Z,1.30
2022-09-13T12:57:21.347Z,1.58
2022-09-13T12:58:59.637Z,1.80
2022-09-13T13:00:13.386Z,1.40
2022-09-13T13:01:19.907Z,1.30
2022-09-13T13:02:54.604Z,1.45
2022-09-13T13:04:16.210Z,1.60
2022-09-13T13:05:41.102Z,1.73
2022-09-13T13:07:01.953Z,1.50
2022-09-13T13:08:07.261Z,1.48
2022-09-13T13:09:41.056Z,1.40
2022-09-13T13:10:42.764Z,1.40
2022-09-13T13:11:47.861Z,1.33
2022-09-13T13:12:49.516Z,1.52
2022-09-13T13:14:09.361Z,1.40
2022-09-13T13:15:17.704Z,1.42
2022-09-13T13:16:31.409Z,1.30
2022-09-13T13:17:43.940Z,1.30
2022-09-13T13:18:49.011Z,1.40
2022-09-13T13:19:50.715Z,1.40
2022-09-13T13:20:55.290Z,1.40
2022-09-13T13:22:34.977Z,1.45
2022-09-13T13:23:39.149Z,1.40
2022-09-13T13:24:46.789Z,1.63
2022-09-13T13:26:00.902Z,1.52
2022-09-13T13:27:33.412Z,1.40
2022-09-13T13:28:43.898Z,1.42
2022-09-13T13:29:45.525Z,1.50
2022-09-13T13:30:54.134Z,1.40
2022-09-13T13:32:02.604Z,1.40
2022-09-13T13:33:20.895Z,1.65
2022-09-13T13:34:30.665Z,1.60
2022-09-13T13:35:32.579Z,1.67
2022-09-13T13:36:40.236Z,1.30
2022-09-13T13:37:41.800Z,1.45
2022-09-13T13:38:48.380Z,1.63
2022-09-13T13:40:12.775Z,1.23
2022-09-13T13:41:33.352Z,1.55
2022-09-13T13:42:38.393Z,1.38
2022-09-13T13:43:39.974Z,1.50
2022-09-13T13:44:41.855Z,1.60
2022-09-13T13:46:20.346Z,1.52
2022-09-13T13:47:21.805Z,1.30
2022-09-13T13:48:41.034Z,1.40
2022-09-13T13:49:54.569Z,1.30
2022-09-13T13:51:14.516Z,1.98
2022-09-13T13:52:22.513Z,1.40
2022-09-13T13:53:36.094Z,1.20
2022-09-13T13:54:40.496Z,1.40
2022-09-13T13:55:45.794Z,1.30
2022-09-13T13:56:49.655Z,1.38
2022-09-13T13:58:15.907Z,1.38
2022-09-13T13:59:27.181Z,1.20
2022-09-13T14:00:31.580Z,1.40
2022-09-13T14:01:36.677Z,1.27
2022-09-13T14:02:53.541Z,1.48
2022-09-13T14:04:35.618Z,1.63
2022-09-13T14:05:46.323Z,1.40
2022-09-13T14:07:09.427Z,1.30
2022-09-13T14:08:32.036Z,1.35
2022-09-13T14:10:16.990Z,1.42
2022-09-13T14:11:26.320Z,1.70
2022-09-13T14:12:44.298Z,1.38
2022-09-13T14:13:54.752Z,1.50
2022-09-13T14:15:15.614Z,1.45
2022-09-13T14:16:20.493Z,1.60
2022-09-13T14:17:40.437Z,1.40
2022-09-13T14:18:51.000Z,1.60
2022-09-13T14:19:56.230Z,1.40
2022-09-13T14:21:20.003Z,1.38
2022-09-13T14:22:26.660Z,1.42
2022-09-13T14:23:28.617Z,1.40
2022-09-13T14:24:30.134Z,1.38
2022-09-13T14:25:31.925Z,1.70
2022-09-13T14:26:33.592Z,1.58
2022-09-13T14:27:37.639Z,1.60
2022-09-13T14:28:40.468Z,1.40
2022-09-13T14:29:46.193Z,1.60
2022-09-13T14:30:48.050Z,1.65
2022-09-13T14:31:52.084Z,1.58
2022-09-13T14:32:58.052Z,1.52
2022-09-13T14:33:59.677Z,1.70
2022-09-13T14:35:04.805Z,1.40
2022-09-13T14:36:08.873Z,1.65
2022-09-13T14:37:18.881Z,1.60
2022-09-13T14:38:30.928Z,1.45
2022-09-13T14:39:33.521Z,1.30
2022-09-13T14:40:35.111Z,1.83
2022-09-13T14:41:38.678Z,1.42
2022-09-13T14:42:44.473Z,1.48
2022-09-13T14:43:47.564Z,1.20
2022-09-13T14:44:49.835Z,1.35
2022-09-13T14:46:06.277Z,1.15
2022-09-13T14:47:21.853Z,1.60
2022-09-13T14:48:32.720Z,1.70
2022-09-13T14:49:45.347Z,1.70
2022-09-13T14:51:31.073Z,1.40
2022-09-13T14:52:36.544Z,1.50
2022-09-13T14:53:41.852Z,1.30
2022-09-13T14:54:48.621Z,1.67
2022-09-13T14:56:06.592Z,1.50
2022-09-13T14:57:19.915Z,1.60
2022-09-13T14:58:26.933Z,1.73
2022-09-13T14:59:28.435Z,1.48
2022-09-13T15:00:33.600Z,1.50
2022-09-13T15:01:36.193Z,1.52
2022-09-13T15:02:40.096Z,1.75
2022-09-13T15:03:46.516Z,1.60
2022-09-13T15:04:54.704Z,1.90
2022-09-13T15:05:59.987Z,2.00
2022-09-13T15:07:17.623Z,2.10
2022-09-13T15:08:43.740Z,1.50
2022-09-13T15:09:45.842Z,1.60
2022-09-13T15:10:47.370Z,1.70
2022-09-13T15:11:51.916Z,1.60
2022-09-13T15:12:56.057Z,1.50
2022-09-13T15:14:24.404Z,1.70
2022-09-13T15:15:31.829Z,1.50
2022-09-13T15:16:33.421Z,1.63
2022-09-13T15:17:54.088Z,1.70
2022-09-13T15:19:17.328Z,1.50
2022-09-13T15:20:19.471Z,1.80
2022-09-13T15:21:21.857Z,1.98